sensor_id;sensor_type;location;lat;lon;timestamp;P1;durP1;ratioP1;P2;durP2;ratioP2
68800;SDS011;55784;50.734;7.086;2023-11-19T00:00:45;3.90;;;0.80;;
68800;SDS011;55784;50.734;7.086;2023-11-19T00:03:11;3.53;;;0.70;;
68800;SDS011;55784;50.734;7.086;2023-11-19T00:05:38;3.37;;;0.70;;
68800;SDS011;55784;50.734;7.086;2023-11-19T00:08:13;2.75;;;0.55;;
68800;SDS011;55784;50.734;7.086;2023-11-19T00:10:38;3.30;;;0.60;;
68800;SDS011;55784;50.734;7.086;2023-11-19T00:13:04;4.13;;;0.83;;
68800;SDS011;55784;50.734;7.086;2023-11-19T00:15:32;3.42;;;0.70;;
68800;SDS011;55784;50.734;7.086;2023-11-19T00:18:06;3.27;;;0.77;;
68800;SDS011;55784;50.734;7.086;2023-11-19T00:20:41;4.18;;;0.80;;
68800;SDS011;55784;50.734;7.086;2023-11-19T00:23:09;2.93;;;0.60;;
68800;SDS011;55784;50.734;7.086;2023-11-19T00:25:35;2.28;;;0.43;;
68800;SDS011;55784;50.734;7.086;2023-11-19T00:28:00;2.23;;;0.40;;
68800;SDS011;55784;50.734;7.086;2023-11-19T00:30:25;2.83;;;0.57;;
68800;SDS011;55784;50.734;7.086;2023-11-19T00:32:51;3.67;;;0.67;;
68800;SDS011;55784;50.734;7.086;2023-11-19T00:35:16;3.23;;;0.80;;
68800;SDS011;55784;50.734;7.086;2023-11-19T00:37:42;4.20;;;0.70;;
68800;SDS011;55784;50.734;7.086;2023-11-19T00:40:07;3.30;;;0.60;;
68800;SDS011;55784;50.734;7.086;2023-11-19T00:42:43;3.20;;;0.60;;
68800;SDS011;55784;50.734;7.086;2023-11-19T00:45:09;4.63;;;1.00;;
68800;SDS011;55784;50.734;7.086;2023-11-19T00:47:35;4.10;;;0.82;;
68800;SDS011;55784;50.734;7.086;2023-11-19T00:50:07;4.77;;;1.00;;
68800;SDS011;55784;50.734;7.086;2023-11-19T00:52:58;5.68;;;1.00;;
68800;SDS011;55784;50.734;7.086;2023-11-19T00:58:37;4.90;;;0.80;;
68800;SDS011;55784;50.734;7.086;2023-11-19T01:01:11;3.97;;;0.90;;
68800;SDS011;55784;50.734;7.086;2023-11-19T01:03:40;4.10;;;0.80;;
68800;SDS011;55784;50.734;7.086;2023-11-19T01:06:31;5.07;;;0.60;;
68800;SDS011;55784;50.734;7.086;2023-11-19T01:12:22;3.05;;;0.63;;
68800;SDS011;55784;50.734;7.086;2023-11-19T01:14:50;5.30;;;1.08;;
68800;SDS011;55784;50.734;7.086;2023-11-19T01:17:19;2.03;;;0.50;;
68800;SDS011;55784;50.734;7.086;2023-11-19T01:19:47;2.83;;;0.50;;
68800;SDS011;55784;50.734;7.086;2023-11-19T01:22:16;1.60;;;0.30;;
68800;SDS011;55784;50.734;7.086;2023-11-19T01:28:26;2.83;;;0.40;;
68800;SDS011;55784;50.734;7.086;2023-11-19T01:30:57;1.83;;;0.30;;
68800;SDS011;55784;50.734;7.086;2023-11-19T01:33:28;1.13;;;0.30;;
68800;SDS011;55784;50.734;7.086;2023-11-19T01:35:57;1.50;;;0.20;;
68800;SDS011;55784;50.734;7.086;2023-11-19T01:55:56;1.73;;;0.20;;
68800;SDS011;55784;50.734;7.086;2023-11-19T01:58:26;1.10;;;0.17;;
68800;SDS011;55784;50.734;7.086;2023-11-19T02:00:52;3.00;;;0.43;;
68800;SDS011;55784;50.734;7.086;2023-11-19T02:03:21;1.75;;;0.30;;
68800;SDS011;55784;50.734;7.086;2023-11-19T02:05:59;0.90;;;0.10;;
68800;SDS011;55784;50.734;7.086;2023-11-19T02:08:35;2.35;;;0.30;;
68800;SDS011;55784;50.734;7.086;2023-11-19T02:11:10;1.63;;;0.20;;
68800;SDS011;55784;50.734;7.086;2023-11-19T02:23:35;2.15;;;0.40;;
68800;SDS011;55784;50.734;7.086;2023-11-19T02:32:34;0.68;;;0.20;;
68800;SDS011;55784;50.734;7.086;2023-11-19T02:35:05;1.92;;;0.17;;
68800;SDS011;55784;50.734;7.086;2023-11-19T02:37:33;2.15;;;0.30;;
68800;SDS011;55784;50.734;7.086;2023-11-19T02:40:03;0.95;;;0.20;;
68800;SDS011;55784;50.734;7.086;2023-11-19T02:42:30;1.67;;;0.20;;
68800;SDS011;55784;50.734;7.086;2023-11-19T02:45:04;0.77;;;0.10;;
68800;SDS011;55784;50.734;7.086;2023-11-19T02:47:39;0.85;;;0.10;;
68800;SDS011;55784;50.734;7.086;2023-11-19T02:50:10;0.30;;;0.10;;
68800;SDS011;55784;50.734;7.086;2023-11-19T02:52:43;2.00;;;0.20;;
68800;SDS011;55784;50.734;7.086;2023-11-19T02:55:09;1.40;;;0.17;;
68800;SDS011;55784;50.734;7.086;2023-11-19T02:57:38;0.75;;;0.20;;
68800;SDS011;55784;50.734;7.086;2023-11-19T03:00:12;1.48;;;0.10;;
68800;SDS011;55784;50.734;7.086;2023-11-19T03:02:48;1.80;;;0.20;;
68800;SDS011;55784;50.734;7.086;2023-11-19T03:05:23;1.23;;;0.25;;
68800;SDS011;55784;50.734;7.086;2023-11-19T03:07:49;0.60;;;0.10;;
68800;SDS011;55784;50.734;7.086;2023-11-19T03:10:16;1.50;;;0.20;;
68800;SDS011;55784;50.734;7.086;2023-11-19T03:12:43;1.23;;;0.10;;
68800;SDS011;55784;50.734;7.086;2023-11-19T03:15:09;2.05;;;0.28;;
68800;SDS011;55784;50.734;7.086;2023-11-19T03:17:41;2.80;;;0.20;;
68800;SDS011;55784;50.734;7.086;2023-11-19T03:20:08;1.15;;;0.20;;
68800;SDS011;55784;50.734;7.086;2023-11-19T03:22:46;0.95;;;0.20;;
68800;SDS011;55784;50.734;7.086;2023-11-19T03:25:11;2.07;;;0.27;;
68800;SDS011;55784;50.734;7.086;2023-11-19T03:27:38;2.08;;;0.20;;
68800;SDS011;55784;50.734;7.086;2023-11-19T03:30:07;2.17;;;0.22;;
68800;SDS011;55784;50.734;7.086;2023-11-19T03:32:34;2.15;;;0.30;;
68800;SDS011;55784;50.734;7.086;2023-11-19T03:35:03;5.80;;;0.50;;
68800;SDS011;55784;50.734;7.086;2023-11-19T03:37:29;3.47;;;0.50;;
68800;SDS011;55784;50.734;7.086;2023-11-19T03:39:56;5.10;;;0.60;;
68800;SDS011;55784;50.734;7.086;2023-11-19T03:42:24;5.72;;;0.80;;
68800;SDS011;55784;50.734;7.086;2023-11-19T03:44:55;5.97;;;0.70;;
68800;SDS011;55784;50.734;7.086;2023-11-19T03:47:28;6.68;;;0.90;;
68800;SDS011;55784;50.734;7.086;2023-11-19T03:49:57;8.97;;;1.20;;
68800;SDS011;55784;50.734;7.086;2023-11-19T03:52:47;6.68;;;0.90;;
68800;SDS011;55784;50.734;7.086;2023-11-19T03:55:16;7.20;;;1.30;;
68800;SDS011;55784;50.734;7.086;2023-11-19T03:57:50;8.77;;;1.23;;
68800;SDS011;55784;50.734;7.086;2023-11-19T04:00:19;7.85;;;1.00;;
68800;SDS011;55784;50.734;7.086;2023-11-19T04:03:02;7.85;;;0.95;;
68800;SDS011;55784;50.734;7.086;2023-11-19T04:05:37;5.47;;;0.90;;
68800;SDS011;55784;50.734;7.086;2023-11-19T04:08:03;7.53;;;1.15;;
68800;SDS011;55784;50.734;7.086;2023-11-19T04:10:31;4.37;;;0.70;;
68800;SDS011;55784;50.734;7.086;2023-11-19T04:12:57;6.53;;;1.10;;
68800;SDS011;55784;50.734;7.086;2023-11-19T04:15:22;5.17;;;0.70;;
68800;SDS011;55784;50.734;7.086;2023-11-19T04:17:47;6.68;;;0.90;;
68800;SDS011;55784;50.734;7.086;2023-11-19T04:20:13;7.80;;;1.00;;
68800;SDS011;55784;50.734;7.086;2023-11-19T04:22:39;7.80;;;1.10;;
68800;SDS011;55784;50.734;7.086;2023-11-19T04:25:04;7.75;;;1.10;;
68800;SDS011;55784;50.734;7.086;2023-11-19T04:27:30;6.30;;;0.87;;
68800;SDS011;55784;50.734;7.086;2023-11-19T04:29:55;5.00;;;0.75;;
68800;SDS011;55784;50.734;7.086;2023-11-19T04:32:27;6.85;;;0.90;;
68800;SDS011;55784;50.734;7.086;2023-11-19T04:35:01;6.50;;;0.80;;
68800;SDS011;55784;50.734;7.086;2023-11-19T04:37:26;6.13;;;0.70;;
68800;SDS011;55784;50.734;7.086;2023-11-19T04:39:54;8.23;;;0.97;;
68800;SDS011;55784;50.734;7.086;2023-11-19T04:42:23;4.88;;;0.95;;
68800;SDS011;55784;50.734;7.086;2023-11-19T04:44:51;5.97;;;1.27;;
68800;SDS011;55784;50.734;7.086;2023-11-19T04:47:20;6.27;;;0.90;;
68800;SDS011;55784;50.734;7.086;2023-11-19T04:53:07;6.75;;;0.90;;
68800;SDS011;55784;50.734;7.086;2023-11-19T04:55:39;7.82;;;1.10;;
68800;SDS011;55784;50.734;7.086;2023-11-19T04:58:04;5.30;;;0.95;;
68800;SDS011;55784;50.734;7.086;2023-11-19T05:00:29;6.10;;;1.23;;
68800;SDS011;55784;50.734;7.086;2023-11-19T05:07:19;4.70;;;0.80;;
68800;SDS011;55784;50.734;7.086;2023-11-19T05:09:30;6.82;;;0.85;;
68800;SDS011;55784;50.734;7.086;2023-11-19T05:14:57;7.55;;;0.93;;
68800;SDS011;55784;50.734;7.086;2023-11-19T05:17:22;8.70;;;1.17;;
68800;SDS011;55784;50.734;7.086;2023-11-19T05:19:48;7.80;;;0.90;;
68800;SDS011;55784;50.734;7.086;2023-11-19T05:22:16;6.28;;;0.90;;
68800;SDS011;55784;50.734;7.086;2023-11-19T05:24:45;7.15;;;0.95;;
68800;SDS011;55784;50.734;7.086;2023-11-19T05:27:13;8.30;;;1.13;;
68800;SDS011;55784;50.734;7.086;2023-11-19T05:29:39;6.05;;;1.00;;
68800;SDS011;55784;50.734;7.086;2023-11-19T05:32:06;7.67;;;1.37;;
68800;SDS011;55784;50.734;7.086;2023-11-19T05:34:32;7.60;;;1.35;;
68800;SDS011;55784;50.734;7.086;2023-11-19T05:36:57;5.57;;;0.80;;
68800;SDS011;55784;50.734;7.086;2023-11-19T05:39:23;6.82;;;1.08;;
68800;SDS011;55784;50.734;7.086;2023-11-19T05:41:49;8.10;;;0.90;;
68800;SDS011;55784;50.734;7.086;2023-11-19T05:44:17;8.30;;;1.20;;
68800;SDS011;55784;50.734;7.086;2023-11-19T05:46:44;7.95;;;1.10;;
68800;SDS011;55784;50.734;7.086;2023-11-19T05:49:09;8.07;;;1.30;;
68800;SDS011;55784;50.734;7.086;2023-11-19T05:51:38;12.10;;;1.55;;
68800;SDS011;55784;50.734;7.086;2023-11-19T05:54:06;8.35;;;1.02;;
68800;SDS011;55784;50.734;7.086;2023-11-19T05:56:32;7.95;;;1.05;;
68800;SDS011;55784;50.734;7.086;2023-11-19T05:58:58;6.20;;;0.90;;
68800;SDS011;55784;50.734;7.086;2023-11-19T06:01:26;7.35;;;1.05;;
68800;SDS011;55784;50.734;7.086;2023-11-19T06:03:54;9.73;;;1.20;;
68800;SDS011;55784;50.734;7.086;2023-11-19T06:06:20;8.05;;;1.20;;
68800;SDS011;55784;50.734;7.086;2023-11-19T06:08:45;13.17;;;1.60;;
68800;SDS011;55784;50.734;7.086;2023-11-19T06:11:11;9.65;;;1.13;;
68800;SDS011;55784;50.734;7.086;2023-11-19T06:13:43;11.25;;;1.40;;
68800;SDS011;55784;50.734;7.086;2023-11-19T06:16:09;13.07;;;1.40;;
68800;SDS011;55784;50.734;7.086;2023-11-19T06:18:40;10.15;;;1.30;;
68800;SDS011;55784;50.734;7.086;2023-11-19T06:21:06;11.25;;;1.33;;
68800;SDS011;55784;50.734;7.086;2023-11-19T06:23:32;7.20;;;1.13;;
68800;SDS011;55784;50.734;7.086;2023-11-19T06:25:57;9.07;;;1.23;;
68800;SDS011;55784;50.734;7.086;2023-11-19T06:28:34;7.78;;;0.98;;
68800;SDS011;55784;50.734;7.086;2023-11-19T06:31:03;10.10;;;1.33;;
68800;SDS011;55784;50.734;7.086;2023-11-19T06:33:29;9.47;;;1.20;;
68800;SDS011;55784;50.734;7.086;2023-11-19T06:35:54;7.43;;;1.20;;
68800;SDS011;55784;50.734;7.086;2023-11-19T06:38:20;11.45;;;1.27;;
68800;SDS011;55784;50.734;7.086;2023-11-19T06:40:54;7.80;;;1.52;;
68800;SDS011;55784;50.734;7.086;2023-11-19T06:43:19;8.67;;;1.40;;
68800;SDS011;55784;50.734;7.086;2023-11-19T06:45:45;10.33;;;1.30;;
68800;SDS011;55784;50.734;7.086;2023-11-19T06:48:10;8.07;;;1.10;;
68800;SDS011;55784;50.734;7.086;2023-11-19T06:50:36;11.37;;;1.23;;
68800;SDS011;55784;50.734;7.086;2023-11-19T06:53:01;7.43;;;1.13;;
68800;SDS011;55784;50.734;7.086;2023-11-19T06:55:26;8.80;;;1.00;;
68800;SDS011;55784;50.734;7.086;2023-11-19T06:57:52;11.40;;;1.33;;
68800;SDS011;55784;50.734;7.086;2023-11-19T07:00:17;10.57;;;1.30;;
68800;SDS011;55784;50.734;7.086;2023-11-19T07:02:43;9.97;;;1.10;;
68800;SDS011;55784;50.734;7.086;2023-11-19T07:05:09;11.68;;;1.20;;
68800;SDS011;55784;50.734;7.086;2023-11-19T07:07:34;13.27;;;1.40;;
68800;SDS011;55784;50.734;7.086;2023-11-19T07:10:00;11.23;;;1.23;;
68800;SDS011;55784;50.734;7.086;2023-11-19T07:12:27;9.45;;;1.20;;
68800;SDS011;55784;50.734;7.086;2023-11-19T07:14:52;11.97;;;1.47;;
68800;SDS011;55784;50.734;7.086;2023-11-19T07:17:18;10.00;;;1.47;;
68800;SDS011;55784;50.734;7.086;2023-11-19T07:19:45;10.38;;;1.35;;
68800;SDS011;55784;50.734;7.086;2023-11-19T07:22:11;6.88;;;1.02;;
68800;SDS011;55784;50.734;7.086;2023-11-19T07:24:38;12.00;;;1.40;;
68800;SDS011;55784;50.734;7.086;2023-11-19T07:27:04;11.55;;;1.40;;
68800;SDS011;55784;50.734;7.086;2023-11-19T07:29:29;11.00;;;1.33;;
68800;SDS011;55784;50.734;7.086;2023-11-19T07:31:55;11.37;;;1.20;;
68800;SDS011;55784;50.734;7.086;2023-11-19T07:34:20;9.73;;;1.23;;
68800;SDS011;55784;50.734;7.086;2023-11-19T07:36:46;10.07;;;1.30;;
68800;SDS011;55784;50.734;7.086;2023-11-19T07:39:12;7.03;;;1.23;;
68800;SDS011;55784;50.734;7.086;2023-11-19T07:41:38;6.43;;;1.30;;
68800;SDS011;55784;50.734;7.086;2023-11-19T07:44:03;11.13;;;1.30;;
68800;SDS011;55784;50.734;7.086;2023-11-19T07:46:29;10.23;;;1.20;;
68800;SDS011;55784;50.734;7.086;2023-11-19T07:48:54;12.17;;;1.60;;
68800;SDS011;55784;50.734;7.086;2023-11-19T07:51:19;7.50;;;1.00;;
68800;SDS011;55784;50.734;7.086;2023-11-19T07:53:45;9.10;;;1.17;;
68800;SDS011;55784;50.734;7.086;2023-11-19T07:56:10;9.50;;;1.13;;
68800;SDS011;55784;50.734;7.086;2023-11-19T07:58:36;11.00;;;1.37;;
68800;SDS011;55784;50.734;7.086;2023-11-19T08:01:01;10.82;;;1.42;;
68800;SDS011;55784;50.734;7.086;2023-11-19T08:03:27;11.67;;;1.70;;
68800;SDS011;55784;50.734;7.086;2023-11-19T08:05:54;11.35;;;1.55;;
68800;SDS011;55784;50.734;7.086;2023-11-19T08:08:22;13.00;;;1.45;;
68800;SDS011;55784;50.734;7.086;2023-11-19T08:10:47;10.93;;;1.37;;
68800;SDS011;55784;50.734;7.086;2023-11-19T08:13:12;7.93;;;1.13;;
68800;SDS011;55784;50.734;7.086;2023-11-19T08:15:38;6.43;;;1.10;;
68800;SDS011;55784;50.734;7.086;2023-11-19T08:18:03;9.43;;;1.50;;
68800;SDS011;55784;50.734;7.086;2023-11-19T08:20:30;11.23;;;1.80;;
68800;SDS011;55784;50.734;7.086;2023-11-19T08:22:55;9.90;;;1.40;;
68800;SDS011;55784;50.734;7.086;2023-11-19T08:25:20;7.70;;;1.60;;
68800;SDS011;55784;50.734;7.086;2023-11-19T08:27:46;11.67;;;2.17;;
68800;SDS011;55784;50.734;7.086;2023-11-19T08:30:11;10.82;;;1.52;;
68800;SDS011;55784;50.734;7.086;2023-11-19T08:32:37;13.60;;;1.80;;
68800;SDS011;55784;50.734;7.086;2023-11-19T08:35:02;11.52;;;1.65;;
68800;SDS011;55784;50.734;7.086;2023-11-19T08:37:28;9.90;;;1.77;;
68800;SDS011;55784;50.734;7.086;2023-11-19T08:39:53;12.37;;;1.50;;
68800;SDS011;55784;50.734;7.086;2023-11-19T08:42:19;13.10;;;1.70;;
68800;SDS011;55784;50.734;7.086;2023-11-19T08:44:49;10.23;;;1.60;;
68800;SDS011;55784;50.734;7.086;2023-11-19T08:47:15;13.07;;;1.85;;
68800;SDS011;55784;50.734;7.086;2023-11-19T08:49:42;10.50;;;1.60;;
68800;SDS011;55784;50.734;7.086;2023-11-19T08:52:08;11.68;;;1.58;;
68800;SDS011;55784;50.734;7.086;2023-11-19T08:54:34;12.53;;;1.40;;
68800;SDS011;55784;50.734;7.086;2023-11-19T08:56:59;12.37;;;1.43;;
68800;SDS011;55784;50.734;7.086;2023-11-19T08:59:25;13.98;;;1.52;;
68800;SDS011;55784;50.734;7.086;2023-11-19T09:01:50;9.57;;;1.30;;
68800;SDS011;55784;50.734;7.086;2023-11-19T09:04:16;10.43;;;1.60;;
68800;SDS011;55784;50.734;7.086;2023-11-19T09:06:41;11.20;;;1.70;;
68800;SDS011;55784;50.734;7.086;2023-11-19T09:09:07;14.23;;;1.42;;
68800;SDS011;55784;50.734;7.086;2023-11-19T09:11:33;13.68;;;1.80;;
68800;SDS011;55784;50.734;7.086;2023-11-19T09:13:58;12.45;;;1.60;;
68800;SDS011;55784;50.734;7.086;2023-11-19T09:16:23;9.80;;;1.83;;
68800;SDS011;55784;50.734;7.086;2023-11-19T09:18:49;13.30;;;1.53;;
68800;SDS011;55784;50.734;7.086;2023-11-19T09:21:14;10.97;;;1.30;;
68800;SDS011;55784;50.734;7.086;2023-11-19T09:23:40;12.90;;;1.67;;
68800;SDS011;55784;50.734;7.086;2023-11-19T09:26:05;13.23;;;1.33;;
68800;SDS011;55784;50.734;7.086;2023-11-19T09:28:31;14.88;;;1.88;;
68800;SDS011;55784;50.734;7.086;2023-11-19T09:30:57;10.80;;;1.20;;
68800;SDS011;55784;50.734;7.086;2023-11-19T09:33:22;15.23;;;1.73;;
68800;SDS011;55784;50.734;7.086;2023-11-19T09:35:48;12.30;;;2.00;;
68800;SDS011;55784;50.734;7.086;2023-11-19T09:38:14;8.80;;;1.63;;
68800;SDS011;55784;50.734;7.086;2023-11-19T09:40:40;11.07;;;1.33;;
68800;SDS011;55784;50.734;7.086;2023-11-19T09:43:05;13.47;;;1.83;;
68800;SDS011;55784;50.734;7.086;2023-11-19T09:45:32;11.50;;;1.40;;
68800;SDS011;55784;50.734;7.086;2023-11-19T09:48:14;12.70;;;1.40;;
68800;SDS011;55784;50.734;7.086;2023-11-19T09:50:42;12.48;;;1.42;;
68800;SDS011;55784;50.734;7.086;2023-11-19T09:53:07;13.10;;;1.80;;
68800;SDS011;55784;50.734;7.086;2023-11-19T09:55:33;11.68;;;1.58;;
68800;SDS011;55784;50.734;7.086;2023-11-19T09:57:58;9.73;;;1.33;;
68800;SDS011;55784;50.734;7.086;2023-11-19T10:00:26;11.30;;;1.50;;
68800;SDS011;55784;50.734;7.086;2023-11-19T10:02:52;11.95;;;1.45;;
68800;SDS011;55784;50.734;7.086;2023-11-19T10:05:19;9.05;;;1.30;;
68800;SDS011;55784;50.734;7.086;2023-11-19T10:07:45;15.23;;;2.17;;
68800;SDS011;55784;50.734;7.086;2023-11-19T10:10:12;12.87;;;1.60;;
68800;SDS011;55784;50.734;7.086;2023-11-19T10:12:40;10.63;;;1.50;;
68800;SDS011;55784;50.734;7.086;2023-11-19T10:15:05;14.57;;;1.50;;
68800;SDS011;55784;50.734;7.086;2023-11-19T10:17:36;11.50;;;1.75;;
68800;SDS011;55784;50.734;7.086;2023-11-19T10:20:01;10.27;;;1.63;;
68800;SDS011;55784;50.734;7.086;2023-11-19T10:22:27;16.63;;;1.88;;
68800;SDS011;55784;50.734;7.086;2023-11-19T10:24:53;16.27;;;1.83;;
68800;SDS011;55784;50.734;7.086;2023-11-19T10:27:18;11.30;;;1.50;;
68800;SDS011;55784;50.734;7.086;2023-11-19T10:29:46;11.33;;;2.07;;
68800;SDS011;55784;50.734;7.086;2023-11-19T10:32:12;11.43;;;1.57;;
68800;SDS011;55784;50.734;7.086;2023-11-19T10:34:39;11.32;;;1.45;;
68800;SDS011;55784;50.734;7.086;2023-11-19T10:37:06;10.30;;;1.60;;
68800;SDS011;55784;50.734;7.086;2023-11-19T10:42:16;11.32;;;1.60;;
68800;SDS011;55784;50.734;7.086;2023-11-19T10:44:42;10.80;;;1.47;;
68800;SDS011;55784;50.734;7.086;2023-11-19T10:47:08;9.23;;;1.40;;
68800;SDS011;55784;50.734;7.086;2023-11-19T10:49:34;13.68;;;1.95;;
68800;SDS011;55784;50.734;7.086;2023-11-19T10:52:00;9.68;;;1.40;;
68800;SDS011;55784;50.734;7.086;2023-11-19T10:54:26;9.48;;;1.30;;
68800;SDS011;55784;50.734;7.086;2023-11-19T10:56:54;13.07;;;1.43;;
68800;SDS011;55784;50.734;7.086;2023-11-19T10:59:22;11.15;;;1.90;;
68800;SDS011;55784;50.734;7.086;2023-11-19T11:01:48;13.43;;;2.05;;
68800;SDS011;55784;50.734;7.086;2023-11-19T11:04:19;8.95;;;1.15;;
68800;SDS011;55784;50.734;7.086;2023-11-19T11:06:48;9.15;;;1.50;;
68800;SDS011;55784;50.734;7.086;2023-11-19T11:09:15;10.23;;;1.53;;
68800;SDS011;55784;50.734;7.086;2023-11-19T11:11:41;9.93;;;1.45;;
68800;SDS011;55784;50.734;7.086;2023-11-19T11:14:12;11.77;;;1.35;;
68800;SDS011;55784;50.734;7.086;2023-11-19T11:16:41;10.55;;;1.50;;
68800;SDS011;55784;50.734;7.086;2023-11-19T11:19:08;7.93;;;1.25;;
68800;SDS011;55784;50.734;7.086;2023-11-19T11:21:34;12.87;;;1.47;;
68800;SDS011;55784;50.734;7.086;2023-11-19T11:29:05;10.20;;;1.52;;
68800;SDS011;55784;50.734;7.086;2023-11-19T11:37:26;12.88;;;1.58;;
68800;SDS011;55784;50.734;7.086;2023-11-19T11:39:59;9.63;;;1.23;;
68800;SDS011;55784;50.734;7.086;2023-11-19T11:42:30;10.27;;;1.27;;
68800;SDS011;55784;50.734;7.086;2023-11-19T11:50:10;9.23;;;1.20;;
68800;SDS011;55784;50.734;7.086;2023-11-19T11:55:36;10.25;;;1.60;;
68800;SDS011;55784;50.734;7.086;2023-11-19T11:58:26;18.65;;;3.97;;
68800;SDS011;55784;50.734;7.086;2023-11-19T12:00:56;10.83;;;2.00;;
68800;SDS011;55784;50.734;7.086;2023-11-19T12:03:22;10.48;;;2.13;;
68800;SDS011;55784;50.734;7.086;2023-11-19T12:05:48;11.87;;;1.87;;
68800;SDS011;55784;50.734;7.086;2023-11-19T12:08:14;9.45;;;1.33;;
68800;SDS011;55784;50.734;7.086;2023-11-19T12:10:47;11.23;;;1.70;;
68800;SDS011;55784;50.734;7.086;2023-11-19T12:13:17;8.98;;;1.20;;
68800;SDS011;55784;50.734;7.086;2023-11-19T12:16:26;10.77;;;1.60;;
68800;SDS011;55784;50.734;7.086;2023-11-19T12:18:33;11.23;;;1.50;;
68800;SDS011;55784;50.734;7.086;2023-11-19T12:20:58;12.27;;;1.80;;
68800;SDS011;55784;50.734;7.086;2023-11-19T12:23:31;11.93;;;2.20;;
68800;SDS011;55784;50.734;7.086;2023-11-19T12:25:57;9.90;;;2.10;;
68800;SDS011;55784;50.734;7.086;2023-11-19T12:28:23;15.57;;;3.08;;
68800;SDS011;55784;50.734;7.086;2023-11-19T12:30:51;10.40;;;2.05;;
68800;SDS011;55784;50.734;7.086;2023-11-19T12:33:18;11.57;;;2.35;;
68800;SDS011;55784;50.734;7.086;2023-11-19T12:35:45;8.53;;;1.43;;
68800;SDS011;55784;50.734;7.086;2023-11-19T12:38:25;11.40;;;2.15;;
68800;SDS011;55784;50.734;7.086;2023-11-19T12:41:06;8.27;;;1.50;;
68800;SDS011;55784;50.734;7.086;2023-11-19T12:43:33;10.18;;;1.30;;
68800;SDS011;55784;50.734;7.086;2023-11-19T12:46:02;8.80;;;1.30;;
68800;SDS011;55784;50.734;7.086;2023-11-19T12:48:44;9.47;;;1.87;;
68800;SDS011;55784;50.734;7.086;2023-11-19T12:51:10;11.18;;;1.83;;
68800;SDS011;55784;50.734;7.086;2023-11-19T12:53:47;9.67;;;2.13;;
68800;SDS011;55784;50.734;7.086;2023-11-19T12:56:23;9.27;;;2.03;;
68800;SDS011;55784;50.734;7.086;2023-11-19T12:58:49;10.38;;;1.52;;
68800;SDS011;55784;50.734;7.086;2023-11-19T13:01:18;13.00;;;1.50;;
68800;SDS011;55784;50.734;7.086;2023-11-19T13:03:45;10.25;;;1.48;;
68800;SDS011;55784;50.734;7.086;2023-11-19T13:06:12;8.75;;;1.17;;
68800;SDS011;55784;50.734;7.086;2023-11-19T13:08:48;9.25;;;1.35;;
68800;SDS011;55784;50.734;7.086;2023-11-19T13:11:38;9.63;;;1.17;;
68800;SDS011;55784;50.734;7.086;2023-11-19T13:14:05;9.23;;;1.17;;
68800;SDS011;55784;50.734;7.086;2023-11-19T13:16:33;8.57;;;1.17;;
68800;SDS011;55784;50.734;7.086;2023-11-19T13:19:02;8.68;;;1.20;;
68800;SDS011;55784;50.734;7.086;2023-11-19T13:21:27;13.50;;;1.40;;
68800;SDS011;55784;50.734;7.086;2023-11-19T13:23:54;8.90;;;1.23;;
68800;SDS011;55784;50.734;7.086;2023-11-19T13:26:20;7.70;;;1.37;;
68800;SDS011;55784;50.734;7.086;2023-11-19T13:28:45;8.02;;;1.45;;
68800;SDS011;55784;50.734;7.086;2023-11-19T13:31:11;7.53;;;1.40;;
68800;SDS011;55784;50.734;7.086;2023-11-19T13:33:36;7.17;;;1.20;;
68800;SDS011;55784;50.734;7.086;2023-11-19T13:36:02;11.60;;;1.23;;
68800;SDS011;55784;50.734;7.086;2023-11-19T13:38:34;9.38;;;1.15;;
68800;SDS011;55784;50.734;7.086;2023-11-19T13:41:03;14.27;;;1.73;;
68800;SDS011;55784;50.734;7.086;2023-11-19T13:43:32;8.88;;;1.20;;
68800;SDS011;55784;50.734;7.086;2023-11-19T13:45:58;9.95;;;1.98;;
68800;SDS011;55784;50.734;7.086;2023-11-19T13:48:23;11.80;;;1.47;;
68800;SDS011;55784;50.734;7.086;2023-11-19T13:50:49;8.38;;;1.58;;
68800;SDS011;55784;50.734;7.086;2023-11-19T13:53:15;9.05;;;1.45;;
68800;SDS011;55784;50.734;7.086;2023-11-19T13:55:41;11.00;;;1.58;;
68800;SDS011;55784;50.734;7.086;2023-11-19T13:58:07;7.60;;;1.30;;
68800;SDS011;55784;50.734;7.086;2023-11-19T14:00:32;9.18;;;1.20;;
68800;SDS011;55784;50.734;7.086;2023-11-19T14:02:58;8.80;;;1.23;;
68800;SDS011;55784;50.734;7.086;2023-11-19T14:05:23;10.80;;;1.30;;
68800;SDS011;55784;50.734;7.086;2023-11-19T14:07:48;12.40;;;2.53;;
68800;SDS011;55784;50.734;7.086;2023-11-19T14:10:15;12.95;;;1.83;;
68800;SDS011;55784;50.734;7.086;2023-11-19T14:12:40;11.27;;;2.00;;
68800;SDS011;55784;50.734;7.086;2023-11-19T14:15:06;9.65;;;1.42;;
68800;SDS011;55784;50.734;7.086;2023-11-19T14:17:34;16.30;;;4.75;;
68800;SDS011;55784;50.734;7.086;2023-11-19T14:20:02;14.93;;;3.00;;
68800;SDS011;55784;50.734;7.086;2023-11-19T14:22:54;8.65;;;1.60;;
68800;SDS011;55784;50.734;7.086;2023-11-19T14:25:20;11.00;;;1.50;;
68800;SDS011;55784;50.734;7.086;2023-11-19T14:27:46;7.70;;;1.23;;
68800;SDS011;55784;50.734;7.086;2023-11-19T14:30:12;9.18;;;1.15;;
68800;SDS011;55784;50.734;7.086;2023-11-19T14:32:41;8.90;;;1.40;;
68800;SDS011;55784;50.734;7.086;2023-11-19T14:35:08;10.15;;;1.40;;
68800;SDS011;55784;50.734;7.086;2023-11-19T14:37:34;10.70;;;1.30;;
68800;SDS011;55784;50.734;7.086;2023-11-19T14:40:00;10.17;;;1.10;;
68800;SDS011;55784;50.734;7.086;2023-11-19T14:42:28;13.77;;;1.77;;
68800;SDS011;55784;50.734;7.086;2023-11-19T14:44:53;7.83;;;1.00;;
68800;SDS011;55784;50.734;7.086;2023-11-19T14:47:25;9.38;;;1.52;;
68800;SDS011;55784;50.734;7.086;2023-11-19T14:49:51;8.17;;;1.07;;
68800;SDS011;55784;50.734;7.086;2023-11-19T14:52:16;9.50;;;1.10;;
68800;SDS011;55784;50.734;7.086;2023-11-19T14:54:42;7.57;;;1.00;;
68800;SDS011;55784;50.734;7.086;2023-11-19T14:57:07;6.07;;;0.97;;
68800;SDS011;55784;50.734;7.086;2023-11-19T14:59:36;8.50;;;1.20;;
68800;SDS011;55784;50.734;7.086;2023-11-19T15:02:02;10.07;;;3.33;;
68800;SDS011;55784;50.734;7.086;2023-11-19T15:04:35;7.63;;;1.30;;
68800;SDS011;55784;50.734;7.086;2023-11-19T15:07:00;7.33;;;1.10;;
68800;SDS011;55784;50.734;7.086;2023-11-19T15:09:26;8.10;;;1.20;;
68800;SDS011;55784;50.734;7.086;2023-11-19T15:11:54;7.83;;;1.07;;
68800;SDS011;55784;50.734;7.086;2023-11-19T15:14:20;7.20;;;1.03;;
68800;SDS011;55784;50.734;7.086;2023-11-19T15:16:45;8.82;;;1.20;;
68800;SDS011;55784;50.734;7.086;2023-11-19T15:19:14;8.70;;;1.23;;
68800;SDS011;55784;50.734;7.086;2023-11-19T15:21:42;8.30;;;1.10;;
68800;SDS011;55784;50.734;7.086;2023-11-19T15:24:08;7.85;;;1.30;;
68800;SDS011;55784;50.734;7.086;2023-11-19T15:26:34;8.45;;;1.45;;
68800;SDS011;55784;50.734;7.086;2023-11-19T15:29:00;9.90;;;1.30;;
68800;SDS011;55784;50.734;7.086;2023-11-19T15:31:26;8.10;;;1.10;;
68800;SDS011;55784;50.734;7.086;2023-11-19T15:33:51;10.83;;;1.80;;
68800;SDS011;55784;50.734;7.086;2023-11-19T15:36:17;8.25;;;1.27;;
68800;SDS011;55784;50.734;7.086;2023-11-19T15:38:42;8.27;;;1.27;;
68800;SDS011;55784;50.734;7.086;2023-11-19T15:41:08;9.50;;;1.30;;
68800;SDS011;55784;50.734;7.086;2023-11-19T15:43:33;9.53;;;1.27;;
68800;SDS011;55784;50.734;7.086;2023-11-19T15:45:59;7.73;;;1.10;;
68800;SDS011;55784;50.734;7.086;2023-11-19T15:48:24;12.20;;;2.60;;
68800;SDS011;55784;50.734;7.086;2023-11-19T15:50:50;12.27;;;2.65;;
68800;SDS011;55784;50.734;7.086;2023-11-19T15:53:16;12.15;;;2.78;;
68800;SDS011;55784;50.734;7.086;2023-11-19T15:55:43;9.43;;;2.70;;
68800;SDS011;55784;50.734;7.086;2023-11-19T15:58:09;10.57;;;2.72;;
68800;SDS011;55784;50.734;7.086;2023-11-19T16:00:34;8.97;;;1.43;;
68800;SDS011;55784;50.734;7.086;2023-11-19T16:02:59;12.17;;;1.40;;